createdAt,value
2022-12-18T05:01:05.949Z,3.50
2022-12-18T05:02:04.727Z,4.00
2022-12-18T05:03:04.744Z,2.20
2022-12-18T05:04:04.762Z,2.60
2022-12-18T05:05:04.676Z,3.70
2022-12-18T05:06:04.618Z,3.20
2022-12-18T05:07:05.294Z,3.60
2022-12-18T05:08:04.616Z,3.50
2022-12-18T05:09:04.612Z,4.00
2022-12-18T05:10:04.595Z,4.30
2022-12-18T05:11:04.585Z,3.30
2022-12-18T05:12:04.554Z,3.20
2022-12-18T05:13:04.813Z,3.60
2022-12-18T05:14:04.535Z,3.40
2022-12-18T05:15:11.562Z,5.10
2022-12-18T05:16:04.561Z,4.70
2022-12-18T05:17:04.530Z,3.70
2022-12-18T05:18:04.495Z,2.70
2022-12-18T05:19:05.160Z,4.10
2022-12-18T05:20:04.462Z,4.00
2022-12-18T05:21:04.475Z,4.40
2022-12-18T05:22:04.443Z,3.40
2022-12-18T05:23:04.456Z,3.70
2022-12-18T05:24:04.422Z,4.30
2022-12-18T05:25:04.810Z,3.30
2022-12-18T05:26:04.400Z,3.70
2022-12-18T05:27:04.412Z,3.00
2022-12-18T05:28:04.410Z,3.50
2022-12-18T05:29:04.390Z,4.10
2022-12-18T05:30:04.354Z,3.70
2022-12-18T05:31:05.084Z,3.80
2022-12-18T05:32:04.375Z,5.00
2022-12-18T05:33:04.351Z,3.70
2022-12-18T05:34:04.305Z,4.90
2022-12-18T05:35:04.339Z,4.50
2022-12-18T05:36:04.277Z,3.50
2022-12-18T05:37:05.024Z,3.30
2022-12-18T05:38:04.270Z,3.00
2022-12-18T05:39:04.315Z,3.10
2022-12-18T05:40:04.247Z,2.90
2022-12-18T05:41:04.272Z,3.90
2022-12-18T05:42:04.216Z,3.40
2022-12-18T05:43:04.294Z,4.50
2022-12-18T05:44:04.194Z,3.50
2022-12-18T05:45:04.203Z,4.60
2022-12-18T05:46:04.214Z,4.00
2022-12-18T05:47:04.218Z,3.90
2022-12-18T05:48:04.134Z,3.20
2022-12-18T05:49:04.219Z,3.50
2022-12-18T05:50:04.115Z,4.00
2022-12-18T05:51:04.135Z,5.00
2022-12-18T05:52:04.098Z,2.90
2022-12-18T05:53:04.110Z,3.60
2022-12-18T05:54:04.114Z,4.40
2022-12-18T05:55:04.078Z,4.90
2022-12-18T05:56:04.048Z,3.40
2022-12-18T05:57:04.048Z,4.20
2022-12-18T05:58:04.025Z,3.40
2022-12-18T05:59:04.058Z,4.20
2022-12-18T06:00:04.501Z,4.40
2022-12-18T06:01:04.018Z,4.00
2022-12-18T06:02:04.124Z,3.40
2022-12-18T06:03:04.170Z,3.60
2022-12-18T06:04:04.055Z,3.50
2022-12-18T06:05:03.962Z,3.70
2022-12-18T06:06:04.161Z,4.80
2022-12-18T06:07:03.960Z,3.00
2022-12-18T06:08:03.921Z,3.90
2022-12-18T06:09:03.928Z,4.20
2022-12-18T06:10:03.889Z,3.70
2022-12-18T06:11:03.912Z,4.10
2022-12-18T06:12:03.928Z,4.20
2022-12-18T06:13:03.882Z,3.60
2022-12-18T06:14:03.862Z,2.80
2022-12-18T06:15:03.861Z,4.00
2022-12-18T06:16:03.835Z,4.20
2022-12-18T06:17:03.827Z,3.20
2022-12-18T06:18:04.003Z,3.10
2022-12-18T06:19:03.802Z,3.10
2022-12-18T06:20:03.843Z,4.20
2022-12-18T06:21:03.785Z,4.40
2022-12-18T06:22:03.776Z,4.40
2022-12-18T06:23:03.766Z,3.80
2022-12-18T06:24:03.844Z,4.40
2022-12-18T06:25:03.736Z,4.20
2022-12-18T06:26:03.709Z,3.60
2022-12-18T06:27:03.732Z,4.00
2022-12-18T06:28:03.697Z,4.30
2022-12-18T06:29:03.708Z,3.90
2022-12-18T06:30:03.737Z,3.80
2022-12-18T06:31:03.801Z,3.80
2022-12-18T06:32:03.651Z,4.30
2022-12-18T06:33:03.648Z,3.80
2022-12-18T06:34:03.625Z,3.80
2022-12-18T06:35:03.633Z,4.10
2022-12-18T06:36:03.651Z,3.40
2022-12-18T06:37:03.647Z,3.80
2022-12-18T06:38:03.586Z,3.90
2022-12-18T06:39:03.588Z,3.20
2022-12-18T06:40:03.685Z,3.00
2022-12-18T06:41:03.566Z,3.50
2022-12-18T06:42:03.516Z,3.50
2022-12-18T06:43:03.547Z,3.60
2022-12-18T06:44:03.505Z,4.30
2022-12-18T06:45:03.743Z,4.10
2022-12-18T06:46:03.529Z,3.80
2022-12-18T06:47:03.506Z,4.40
2022-12-18T06:48:03.472Z,4.60
2022-12-18T06:49:03.461Z,4.20
2022-12-18T06:50:03.435Z,3.90
2022-12-18T06:51:03.512Z,4.10
2022-12-18T06:52:03.426Z,4.00
2022-12-18T06:53:03.448Z,4.20
2022-12-18T06:54:03.392Z,4.30
2022-12-18T06:55:03.402Z,3.30
2022-12-18T06:56:09.194Z,3.00
2022-12-18T06:57:04.438Z,3.80
2022-12-18T06:58:03.350Z,3.30
2022-12-18T06:59:03.328Z,4.30
2022-12-18T07:00:03.342Z,4.20
2022-12-18T07:01:03.349Z,4.10
2022-12-18T07:02:03.518Z,4.40
2022-12-18T07:03:03.390Z,4.20
2022-12-18T07:04:03.284Z,3.40
2022-12-18T07:05:08.942Z,4.30
2022-12-18T07:06:04.264Z,3.20
2022-12-18T07:07:03.239Z,3.60
2022-12-18T07:08:03.244Z,4.20
2022-12-18T07:09:03.273Z,3.60
2022-12-18T07:10:03.216Z,5.10
2022-12-18T07:11:03.180Z,4.50
2022-12-18T07:12:03.191Z,4.10
2022-12-18T07:13:03.176Z,2.50
2022-12-18T07:14:03.182Z,3.00
2022-12-18T07:15:03.201Z,4.40
2022-12-18T07:16:03.198Z,3.80
2022-12-18T07:17:03.143Z,4.50
2022-12-18T07:18:03.130Z,3.70
2022-12-18T07:19:03.136Z,4.20
2022-12-18T07:20:03.117Z,5.00
2022-12-18T07:21:03.129Z,3.60
2022-12-18T07:22:03.132Z,4.20
2022-12-18T07:23:03.070Z,4.70
2022-12-18T07:24:03.056Z,4.30
2022-12-18T07:25:03.033Z,3.50
2022-12-18T07:26:03.035Z,5.10
2022-12-18T07:27:03.196Z,4.30
2022-12-18T07:28:03.036Z,3.30
2022-12-18T07:29:02.983Z,5.30
2022-12-18T07:30:02.999Z,4.80
2022-12-18T07:31:02.982Z,3.70
2022-12-18T07:32:03.030Z,4.50
2022-12-18T07:33:03.072Z,3.70
2022-12-18T07:34:02.944Z,4.50
2022-12-18T07:35:02.972Z,3.70
2022-12-18T07:36:02.921Z,4.20
2022-12-18T07:37:02.887Z,5.10
2022-12-18T07:38:02.912Z,4.50
2022-12-18T07:39:02.961Z,4.10
2022-12-18T07:40:02.890Z,5.10
2022-12-18T07:41:02.867Z,4.40
2022-12-18T07:42:02.849Z,5.40
2022-12-18T07:43:02.840Z,4.20
2022-12-18T07:44:02.849Z,4.20
2022-12-18T07:45:02.848Z,4.80
2022-12-18T07:46:02.978Z,4.40
2022-12-18T07:47:06.523Z,3.90
2022-12-18T07:48:03.796Z,3.70
2022-12-18T07:49:02.755Z,4.00
2022-12-18T07:50:02.763Z,4.10
2022-12-18T07:51:03.169Z,4.40
2022-12-18T07:52:02.725Z,3.70
2022-12-18T07:53:02.716Z,3.90
2022-12-18T07:54:02.731Z,4.60
2022-12-18T07:55:02.700Z,5.00
2022-12-18T07:57:03.872Z,5.30
2022-12-18T07:58:02.664Z,4.30
2022-12-18T07:59:02.639Z,3.80
2022-12-18T08:00:02.666Z,5.00
2022-12-18T08:01:02.677Z,4.70
2022-12-18T08:02:02.760Z,4.00
2022-12-18T08:03:02.707Z,4.10
2022-12-18T08:04:02.628Z,4.30
2022-12-18T08:05:02.567Z,2.80
2022-12-18T08:06:02.596Z,3.80
2022-12-18T08:07:02.536Z,3.80
2022-12-18T08:08:02.556Z,4.30
2022-12-18T08:09:03.132Z,4.60
2022-12-18T08:10:09.552Z,3.80
2022-12-18T08:11:09.511Z,4.70
2022-12-18T08:12:09.512Z,3.80
2022-12-18T08:13:09.483Z,4.10
2022-12-18T08:14:09.587Z,4.20
2022-12-18T08:15:09.457Z,4.00
2022-12-18T08:16:09.610Z,4.20
2022-12-18T08:17:02.448Z,4.90
2022-12-18T08:18:02.453Z,4.10
2022-12-18T08:19:02.402Z,4.60
2022-12-18T08:20:02.712Z,3.90
2022-12-18T08:21:02.384Z,3.90
2022-12-18T08:22:02.382Z,5.50
2022-12-18T08:23:02.369Z,4.80
2022-12-18T08:24:02.383Z,4.30
2022-12-18T08:25:02.342Z,3.10
2022-12-18T08:26:02.431Z,4.00
2022-12-18T08:27:29.676Z,4.40
2022-12-18T08:28:03.339Z,4.10
2022-12-18T08:29:02.288Z,4.10
2022-12-18T08:30:02.308Z,4.40
2022-12-18T08:31:02.344Z,3.40
2022-12-18T08:32:02.446Z,3.30
2022-12-18T08:33:02.244Z,3.30
2022-12-18T08:34:02.280Z,4.10
2022-12-18T08:35:02.238Z,4.40
2022-12-18T08:36:02.232Z,3.90
2022-12-18T08:37:02.216Z,4.20
2022-12-18T08:38:02.405Z,3.90
2022-12-18T08:39:02.176Z,4.30
2022-12-18T08:40:02.185Z,4.00
2022-12-18T08:41:02.145Z,4.50
2022-12-18T08:42:06.760Z,4.40
2022-12-18T08:43:03.201Z,3.70
2022-12-18T08:44:02.155Z,4.20
2022-12-18T08:45:02.092Z,4.70
2022-12-18T08:46:02.234Z,3.30
2022-12-18T08:47:02.078Z,5.50
2022-12-18T08:48:02.111Z,4.20
2022-12-18T08:49:02.098Z,4.70
2022-12-18T08:50:02.095Z,4.10
2022-12-18T08:51:02.030Z,3.50
2022-12-18T08:52:02.046Z,4.60
2022-12-18T08:53:02.021Z,4.50
2022-12-18T08:54:02.070Z,5.40
2022-12-18T08:55:02.037Z,4.10
2022-12-18T08:56:02.002Z,5.10
2022-12-18T08:57:01.988Z,5.30
2022-12-18T08:58:01.967Z,4.30
2022-12-18T08:59:01.993Z,4.70
2022-12-18T09:00:01.971Z,4.30
2022-12-18T09:01:02.336Z,3.90
2022-12-18T09:02:02.110Z,3.80
2022-12-18T09:03:02.117Z,3.50
2022-12-18T09:04:01.917Z,4.20
2022-12-18T09:05:01.892Z,3.90
2022-12-18T09:06:01.899Z,3.50
2022-12-18T09:07:02.213Z,5.50
2022-12-18T09:08:01.882Z,4.00
2022-12-18T09:09:01.820Z,4.80
2022-12-18T09:10:01.821Z,4.40
2022-12-18T09:11:01.868Z,4.30
2022-12-18T09:12:01.912Z,3.60
2022-12-18T09:13:02.567Z,4.50
2022-12-18T09:14:01.773Z,4.00
2022-12-18T09:15:01.779Z,5.00
2022-12-18T09:16:01.786Z,4.10
2022-12-18T09:17:01.837Z,4.30
2022-12-18T09:18:01.814Z,4.40
2022-12-18T09:19:01.757Z,4.50
2022-12-18T09:20:01.715Z,3.50
2022-12-18T09:21:01.808Z,4.90
2022-12-18T09:22:01.697Z,4.20
2022-12-18T09:23:01.653Z,4.80
2022-12-18T09:24:01.673Z,4.00
2022-12-18T09:25:01.831Z,4.10
2022-12-18T09:26:01.633Z,4.60
2022-12-18T09:27:01.739Z,4.20
2022-12-18T09:28:01.611Z,3.20
2022-12-18T09:29:01.705Z,3.20
2022-12-18T09:30:01.582Z,4.20
2022-12-18T09:31:02.238Z,5.10
2022-12-18T09:32:01.564Z,5.00
2022-12-18T09:33:01.526Z,5.80
2022-12-18T09:34:01.577Z,4.50
2022-12-18T09:35:01.589Z,4.90
2022-12-18T09:36:01.538Z,4.80
2022-12-18T09:37:01.798Z,3.50
2022-12-18T09:38:02.634Z,4.60
2022-12-18T09:39:05.124Z,4.70
2022-12-18T09:40:02.474Z,5.50
2022-12-18T09:41:01.467Z,4.50
2022-12-18T09:42:01.517Z,4.70
2022-12-18T09:43:01.426Z,4.80
2022-12-18T09:44:01.494Z,5.40
2022-12-18T09:45:01.470Z,5.00
2022-12-18T09:46:01.438Z,4.90
2022-12-18T09:47:01.384Z,5.30
2022-12-18T09:48:01.380Z,6.50
2022-12-18T09:49:01.392Z,4.30
2022-12-18T09:50:01.434Z,5.70
2022-12-18T09:51:01.319Z,5.00
2022-12-18T09:52:01.373Z,5.00
2022-12-18T09:53:01.298Z,3.60
2022-12-18T09:54:01.311Z,4.70
2022-12-18T09:55:01.269Z,3.70
2022-12-18T09:56:01.329Z,4.80
2022-12-18T09:57:01.326Z,4.70
2022-12-18T09:58:01.321Z,5.30
2022-12-18T09:59:01.229Z,5.30
2022-12-18T10:00:01.242Z,4.90
2022-12-18T10:01:01.211Z,4.80
2022-12-18T10:02:01.618Z,4.30
2022-12-18T10:03:01.391Z,4.20
2022-12-18T10:04:01.230Z,4.40
2022-12-18T10:05:01.168Z,4.40
2022-12-18T10:06:01.173Z,5.10
2022-12-18T10:07:07.278Z,5.00
2022-12-18T10:08:03.124Z,4.40
2022-12-18T10:09:01.136Z,4.90
2022-12-18T10:10:01.170Z,4.00
2022-12-18T10:11:01.123Z,4.70
2022-12-18T10:12:01.112Z,5.40
2022-12-18T10:13:04.539Z,5.10
2022-12-18T10:14:01.272Z,5.50
2022-12-18T10:15:01.030Z,5.10
2022-12-18T10:16:01.128Z,4.80
2022-12-18T10:17:01.013Z,5.20
2022-12-18T10:18:01.060Z,5.00
2022-12-18T10:19:00.979Z,6.10
2022-12-18T10:20:01.542Z,4.30
2022-12-18T10:21:00.971Z,4.70
2022-12-18T10:22:00.994Z,5.10
2022-12-18T10:23:01.088Z,4.20
2022-12-18T10:24:00.957Z,5.10
2022-12-18T10:25:00.939Z,5.80
2022-12-18T10:26:07.019Z,4.30
2022-12-18T10:27:00.887Z,4.70
2022-12-18T10:28:00.975Z,5.50
2022-12-18T10:29:05.272Z,6.10
2022-12-18T10:30:00.962Z,5.60
2022-12-18T10:31:00.948Z,5.00
2022-12-18T10:32:00.844Z,4.70
2022-12-18T10:33:00.820Z,4.10
2022-12-18T10:34:00.834Z,4.40
2022-12-18T10:35:01.243Z,5.80
2022-12-18T10:36:00.804Z,5.50
2022-12-18T10:37:00.892Z,5.80
2022-12-18T10:38:00.785Z,5.60
2022-12-18T10:39:00.740Z,5.00
2022-12-18T10:40:00.903Z,5.20
2022-12-18T10:41:00.770Z,7.20
2022-12-18T10:42:00.734Z,4.40
2022-12-18T10:43:00.911Z,5.40
2022-12-18T10:44:00.716Z,5.90
2022-12-18T10:45:00.669Z,5.50
2022-12-18T10:46:00.741Z,5.40
2022-12-18T10:47:00.649Z,5.40
2022-12-18T10:48:00.691Z,6.00
2022-12-18T10:49:01.779Z,5.70
2022-12-18T10:50:00.651Z,6.30
2022-12-18T10:51:13.141Z,5.60
2022-12-18T10:52:01.785Z,5.90
2022-12-18T10:53:00.625Z,6.50
2022-12-18T10:54:00.635Z,5.90
2022-12-18T10:55:01.041Z,6.00
2022-12-18T10:56:00.613Z,5.50
2022-12-18T10:57:00.543Z,6.80
2022-12-18T10:58:00.515Z,6.10
2022-12-18T10:59:00.529Z,6.30
2022-12-18T11:00:00.494Z,4.80
2022-12-18T11:01:01.642Z,5.50
2022-12-18T11:02:00.549Z,6.40
2022-12-18T11:03:00.648Z,5.50
2022-12-18T11:04:02.657Z,5.50
2022-12-18T11:05:00.483Z,5.80
2022-12-18T11:06:00.432Z,6.20
2022-12-18T11:07:01.344Z,5.70
2022-12-18T11:08:00.439Z,5.80
2022-12-18T11:09:00.412Z,4.80
2022-12-18T11:10:00.534Z,6.00
2022-12-18T11:11:00.390Z,5.90
2022-12-18T11:12:00.417Z,5.40
2022-12-18T11:13:00.901Z,5.20
2022-12-18T11:14:00.319Z,5.90
2022-12-18T11:15:08.401Z,5.70
2022-12-18T11:16:00.346Z,6.00
2022-12-18T11:17:24.794Z,6.30
2022-12-18T11:18:02.964Z,6.20
2022-12-18T11:19:00.290Z,6.30
2022-12-18T11:20:00.251Z,5.60
2022-12-18T11:21:00.333Z,6.20
2022-12-18T11:22:00.215Z,6.20
2022-12-18T11:23:00.259Z,5.60
2022-12-18T11:24:00.229Z,5.30
2022-12-18T11:26:01.483Z,5.50
2022-12-18T11:27:00.210Z,4.70
2022-12-18T11:28:00.148Z,5.60
2022-12-18T11:29:00.163Z,6.30
2022-12-18T11:30:00.170Z,5.60
2022-12-18T11:31:00.214Z,6.40
2022-12-18T11:32:00.159Z,6.40
2022-12-18T11:33:00.137Z,6.00
2022-12-18T11:34:27.435Z,6.10
2022-12-18T11:35:01.097Z,6.50
2022-12-18T11:36:00.110Z,5.70
2022-12-18T11:37:00.075Z,6.00
2022-12-18T11:38:00.033Z,6.50
2022-12-18T11:39:00.082Z,5.40
2022-12-18T11:40:00.015Z,5.40
2022-12-18T11:41:00.002Z,6.00
2022-12-18T11:42:00.043Z,5.60
2022-12-18T11:42:59.979Z,6.40
2022-12-18T11:43:59.959Z,6.50
2022-12-18T11:44:59.998Z,6.30
2022-12-18T11:45:59.971Z,6.40
2022-12-18T11:47:00.034Z,6.70
2022-12-18T11:47:59.939Z,5.80
2022-12-18T11:48:59.900Z,6.60
2022-12-18T11:49:59.881Z,6.40
2022-12-18T11:50:59.949Z,5.70
2022-12-18T11:51:59.875Z,5.60
2022-12-18T11:53:05.473Z,5.80
2022-12-18T11:54:00.828Z,6.00
2022-12-18T11:54:59.858Z,6.40
2022-12-18T11:55:59.797Z,5.90
2022-12-18T11:56:59.929Z,6.30
2022-12-18T11:57:59.828Z,6.10
2022-12-18T11:58:59.800Z,6.10
2022-12-18T11:59:59.779Z,4.50
2022-12-18T12:00:59.830Z,5.20
2022-12-18T12:01:59.786Z,4.90
2022-12-18T12:03:00.517Z,5.70
2022-12-18T12:03:59.789Z,4.30
2022-12-18T12:04:59.704Z,4.80
2022-12-18T12:05:59.711Z,5.30
2022-12-18T12:07:03.076Z,5.90
2022-12-18T12:07:59.685Z,4.90
2022-12-18T12:08:59.755Z,5.90
2022-12-18T12:09:59.635Z,5.00
2022-12-18T12:10:59.663Z,7.10
2022-12-18T12:11:59.611Z,5.80
2022-12-18T12:12:59.634Z,6.50
2022-12-18T12:13:59.595Z,6.60
2022-12-18T12:14:59.933Z,7.90
2022-12-18T12:15:59.622Z,5.80
2022-12-18T12:16:59.581Z,4.90
2022-12-18T12:17:59.530Z,5.80
2022-12-18T12:18:59.539Z,6.40
2022-12-18T12:19:59.500Z,4.60
2022-12-18T12:20:59.640Z,5.60
2022-12-18T12:21:59.498Z,5.90
2022-12-18T12:22:59.532Z,6.30
2022-12-18T12:23:59.451Z,5.40
2022-12-18T12:24:59.559Z,5.20
2022-12-18T12:25:59.438Z,6.10
2022-12-18T12:26:59.646Z,5.50
2022-12-18T12:27:59.411Z,5.30
2022-12-18T12:28:59.407Z,4.90
2022-12-18T12:29:59.377Z,4.50
2022-12-18T12:30:59.417Z,6.30
2022-12-18T12:31:59.446Z,5.10
2022-12-18T12:33:00.058Z,5.50
2022-12-18T12:33:59.365Z,4.50
2022-12-18T12:35:01.674Z,5.00
2022-12-18T12:35:59.295Z,6.00
2022-12-18T12:36:59.322Z,3.90
2022-12-18T12:37:59.272Z,4.90
2022-12-18T12:38:59.331Z,7.90
2022-12-18T12:39:59.253Z,5.50
2022-12-18T12:41:03.149Z,7.00
2022-12-18T12:41:59.269Z,4.90
2022-12-18T12:42:59.279Z,4.80
2022-12-18T12:43:59.281Z,5.50
2022-12-18T12:44:59.271Z,6.60
2022-12-18T12:45:59.255Z,5.00
2022-12-18T12:46:59.200Z,6.50
2022-12-18T12:47:59.184Z,4.90
2022-12-18T12:48:59.159Z,6.80
2022-12-18T12:49:59.212Z,5.50
2022-12-18T12:51:00.031Z,4.80
2022-12-18T12:51:59.094Z,6.80
2022-12-18T12:52:59.123Z,6.30
2022-12-18T12:53:59.075Z,5.20
2022-12-18T12:54:59.085Z,5.80
2022-12-18T12:55:59.048Z,5.00
2022-12-18T12:56:59.117Z,6.60
2022-12-18T12:57:59.027Z,5.70
2022-12-18T12:58:59.162Z,6.00
2022-12-18T12:59:58.994Z,5.70
2022-12-18T13:00:59.157Z,6.20
2022-12-18T13:01:59.099Z,6.70
2022-12-18T13:02:59.023Z,5.70
2022-12-18T13:03:58.952Z,5.70
2022-12-18T13:04:58.970Z,5.80
2022-12-18T13:05:58.939Z,3.90
2022-12-18T13:06:58.942Z,5.50
2022-12-18T13:09:00.183Z,5.50
2022-12-18T13:09:58.903Z,5.30
2022-12-18T13:10:58.870Z,5.10
2022-12-18T13:12:59.866Z,5.80
2022-12-18T13:13:43.837Z,6.10
2022-12-18T13:13:46.668Z,5.70
2022-12-18T13:13:58.843Z,5.90
2022-12-18T13:14:58.847Z,5.40
2022-12-18T13:15:58.799Z,5.00
2022-12-18T13:16:58.798Z,5.70
2022-12-18T13:17:59.274Z,5.70
2022-12-18T13:18:58.832Z,6.10
2022-12-18T13:19:58.756Z,5.50
2022-12-18T13:21:02.945Z,5.40
2022-12-18T13:21:58.784Z,5.60
2022-12-18T13:22:58.739Z,4.80
2022-12-18T13:23:58.920Z,6.60
2022-12-18T13:24:58.707Z,5.20
2022-12-18T13:25:58.725Z,4.70
2022-12-18T13:26:58.686Z,5.10
2022-12-18T13:27:58.653Z,5.00
2022-12-18T13:28:58.647Z,5.50
2022-12-18T13:29:58.897Z,6.40
2022-12-18T13:30:58.773Z,5.20
2022-12-18T13:31:58.602Z,5.90
2022-12-18T13:32:58.606Z,5.30
2022-12-18T13:34:26.262Z,5.80
2022-12-18T13:34:59.712Z,6.70
2022-12-18T13:35:58.593Z,5.50
2022-12-18T13:36:58.574Z,7.40
2022-12-18T13:37:58.544Z,8.00
2022-12-18T13:38:58.574Z,7.00
2022-12-18T13:39:58.692Z,6.10
2022-12-18T13:40:58.682Z,6.50
2022-12-18T13:41:58.490Z,7.60
2022-12-18T13:42:58.503Z,6.80
2022-12-18T13:43:58.443Z,6.40
2022-12-18T13:44:58.509Z,7.30
2022-12-18T13:45:58.440Z,7.80
2022-12-18T13:46:58.504Z,7.80
2022-12-18T13:47:58.395Z,6.40
2022-12-18T13:48:58.408Z,6.60
2022-12-18T13:49:58.377Z,5.80
2022-12-18T13:50:58.378Z,5.80
2022-12-18T13:51:58.335Z,6.30
2022-12-18T13:52:58.500Z,5.70
2022-12-18T13:53:58.318Z,6.50
2022-12-18T13:54:58.506Z,5.60
2022-12-18T13:55:58.336Z,6.00
2022-12-18T13:56:58.626Z,6.70
2022-12-18T13:57:58.575Z,5.60
2022-12-18T13:58:58.274Z,5.20
2022-12-18T13:59:58.248Z,5.90
2022-12-18T14:00:58.291Z,5.10
2022-12-18T14:02:05.886Z,5.70
2022-12-18T14:03:05.828Z,4.40
2022-12-18T14:03:58.178Z,5.90
2022-12-18T14:04:58.227Z,6.80
2022-12-18T14:05:58.157Z,6.10
2022-12-18T14:06:58.271Z,4.10
2022-12-18T14:07:58.263Z,5.30
2022-12-18T14:08:58.155Z,5.60
2022-12-18T14:10:06.486Z,5.40
2022-12-18T14:10:59.127Z,5.20
2022-12-18T14:11:58.101Z,5.30
2022-12-18T14:13:02.229Z,6.30
2022-12-18T14:13:59.267Z,4.90
2022-12-18T14:14:58.057Z,5.10
2022-12-18T14:15:59.003Z,5.70
2022-12-18T14:16:58.095Z,4.60
2022-12-18T14:17:58.025Z,4.70
2022-12-18T14:18:59.104Z,5.50
2022-12-18T14:19:59.288Z,5.10
2022-12-18T14:20:57.993Z,5.40
2022-12-18T14:21:57.963Z,5.50
2022-12-18T14:22:57.960Z,5.60
2022-12-18T14:23:57.974Z,7.30
2022-12-18T14:24:57.951Z,5.30
2022-12-18T14:26:03.626Z,5.30
2022-12-18T14:26:58.921Z,5.20
2022-12-18T14:27:57.968Z,6.50
2022-12-18T14:28:57.887Z,6.70
2022-12-18T14:29:57.872Z,6.80
2022-12-18T14:30:57.913Z,5.40
2022-12-18T14:32:03.012Z,5.00
2022-12-18T14:33:04.757Z,5.30
2022-12-18T14:33:57.817Z,4.40
2022-12-18T14:34:57.831Z,4.70
2022-12-18T14:35:57.785Z,5.50
2022-12-18T14:36:57.825Z,4.30
2022-12-18T14:38:01.515Z,6.20
2022-12-18T14:38:58.977Z,5.30
2022-12-18T14:39:57.752Z,6.30
2022-12-18T14:40:57.735Z,5.80
2022-12-18T14:41:57.704Z,5.00
2022-12-18T14:42:57.813Z,6.60
2022-12-18T14:43:57.707Z,5.20
2022-12-18T14:45:13.377Z,5.00
2022-12-18T14:45:58.710Z,5.10
2022-12-18T14:46:57.678Z,3.70
2022-12-18T14:47:57.720Z,4.30
2022-12-18T14:48:57.635Z,5.00
2022-12-18T14:49:57.617Z,4.30
2022-12-18T14:50:57.974Z,4.70
2022-12-18T14:51:57.590Z,4.80
2022-12-18T14:52:57.590Z,4.70
2022-12-18T14:53:57.839Z,6.50
2022-12-18T14:54:57.607Z,3.90
2022-12-18T14:55:57.608Z,5.30
2022-12-18T14:56:57.570Z,5.50
2022-12-18T14:57:57.594Z,5.30
2022-12-18T14:58:57.547Z,5.20
2022-12-18T14:59:57.502Z,4.70
2022-12-18T15:00:57.693Z,4.50
2022-12-18T15:01:57.717Z,4.70
2022-12-18T15:02:57.773Z,4.30
2022-12-18T15:03:57.683Z,4.90
2022-12-18T15:04:57.484Z,3.50
2022-12-18T15:05:57.424Z,4.70
2022-12-18T15:06:57.631Z,4.40
2022-12-18T15:07:57.442Z,4.20
2022-12-18T15:08:57.421Z,5.40
2022-12-18T15:09:57.619Z,4.70
2022-12-18T15:10:57.372Z,4.90
2022-12-18T15:11:57.364Z,5.00
2022-12-18T15:12:57.353Z,4.00
2022-12-18T15:13:57.346Z,3.70
2022-12-18T15:14:57.335Z,3.80
2022-12-18T15:15:57.655Z,3.80
2022-12-18T15:16:57.280Z,4.30
2022-12-18T15:17:57.299Z,4.00
2022-12-18T15:18:57.285Z,4.20
2022-12-18T15:19:57.299Z,3.90
2022-12-18T15:20:57.258Z,4.40
2022-12-18T15:22:00.258Z,4.70
2022-12-18T15:22:58.213Z,4.60
2022-12-18T15:23:57.256Z,3.70
2022-12-18T15:24:57.198Z,4.40
2022-12-18T15:25:57.223Z,4.60
2022-12-18T15:26:57.183Z,3.30
2022-12-18T15:27:57.683Z,3.20
2022-12-18T15:28:57.136Z,4.20
2022-12-18T15:29:57.153Z,4.00
2022-12-18T15:30:57.192Z,3.10
2022-12-18T15:31:57.137Z,4.10
2022-12-18T15:32:57.082Z,3.20
2022-12-18T15:33:57.254Z,4.80
2022-12-18T15:34:57.085Z,2.70
2022-12-18T15:35:57.064Z,3.90
2022-12-18T15:36:57.042Z,4.90
2022-12-18T15:37:57.032Z,3.90
2022-12-18T15:39:04.779Z,4.10
2022-12-18T15:39:58.730Z,3.90
2022-12-18T15:40:56.992Z,5.10
2022-12-18T15:41:57.009Z,3.50
2022-12-18T15:42:57.048Z,3.20
2022-12-18T15:43:56.960Z,3.60
2022-12-18T15:44:56.950Z,3.10
2022-12-18T15:45:57.154Z,3.40
2022-12-18T15:46:56.912Z,4.30
2022-12-18T15:47:56.949Z,3.70
2022-12-18T15:49:01.835Z,4.30
2022-12-18T15:49:57.917Z,3.30
2022-12-18T15:50:56.886Z,3.60
2022-12-18T15:51:59.873Z,3.40
2022-12-18T15:52:56.874Z,3.70
2022-12-18T15:53:56.846Z,4.70
2022-12-18T15:55:04.329Z,3.90
2022-12-18T15:56:04.357Z,4.00
2022-12-18T15:57:05.672Z,5.20
2022-12-18T15:58:04.314Z,5.20
2022-12-18T15:59:04.273Z,5.30
2022-12-18T16:00:04.289Z,4.90
2022-12-18T16:00:56.731Z,5.30
2022-12-18T16:01:56.901Z,4.40
2022-12-18T16:02:57.150Z,4.40
2022-12-18T16:03:57.225Z,5.30
2022-12-18T16:04:57.984Z,4.50
2022-12-18T16:05:58.444Z,3.10
2022-12-18T16:07:14.848Z,3.30
2022-12-18T16:07:57.691Z,3.50
2022-12-18T16:08:56.655Z,4.30
2022-12-18T16:09:56.703Z,3.50
2022-12-18T16:10:56.615Z,4.20
2022-12-18T16:11:57.110Z,4.70
2022-12-18T16:12:56.601Z,4.30
2022-12-18T16:13:56.720Z,3.10
2022-12-18T16:14:56.596Z,3.70
2022-12-18T16:15:56.756Z,4.60
2022-12-18T16:16:56.704Z,4.20
2022-12-18T16:17:56.853Z,4.10
2022-12-18T16:18:56.573Z,3.90
2022-12-18T16:19:56.680Z,4.20
2022-12-18T16:20:56.550Z,3.90
2022-12-18T16:21:56.512Z,4.40
2022-12-18T16:22:56.561Z,4.30
2022-12-18T16:23:56.481Z,4.10
2022-12-18T16:24:57.627Z,3.90
2022-12-18T16:25:56.557Z,4.20
2022-12-18T16:26:56.434Z,5.30
2022-12-18T16:27:56.439Z,4.00
2022-12-18T16:28:56.510Z,5.20
2022-12-18T16:29:56.670Z,3.60
2022-12-18T16:30:56.930Z,3.80
2022-12-18T16:31:56.424Z,4.50
2022-12-18T16:32:56.357Z,3.40
2022-12-18T16:33:56.591Z,3.50
2022-12-18T16:34:56.386Z,3.80
2022-12-18T16:35:56.361Z,5.40
2022-12-18T16:37:05.782Z,5.20
2022-12-18T16:37:56.379Z,4.90
2022-12-18T16:38:56.327Z,4.80
2022-12-18T16:39:56.295Z,4.80
2022-12-18T16:40:56.273Z,4.30
2022-12-18T16:41:56.276Z,4.00
2022-12-18T16:42:57.497Z,4.60
2022-12-18T16:43:56.245Z,4.20
2022-12-18T16:44:56.294Z,5.50
2022-12-18T16:45:56.293Z,4.50
2022-12-18T16:46:56.253Z,4.40
2022-12-18T16:47:56.311Z,5.10
2022-12-18T16:48:56.748Z,5.60
2022-12-18T16:49:56.166Z,5.20
2022-12-18T16:50:56.161Z,6.00
2022-12-18T16:51:56.142Z,4.70
2022-12-18T16:52:56.126Z,5.40
2022-12-18T16:53:56.148Z,5.20
2022-12-18T16:54:56.883Z,5.10
2022-12-18T16:55:56.098Z,5.50
2022-12-18T16:56:56.254Z,5.80
2022-12-18T16:57:56.090Z,4.60
2022-12-18T16:58:56.096Z,5.40
2022-12-18T16:59:58.748Z,6.00
2022-12-18T17:00:57.190Z,6.00
2022-12-18T17:01:56.205Z,5.40
2022-12-18T17:02:56.124Z,4.90
2022-12-18T17:03:56.127Z,5.20
2022-12-18T17:04:55.977Z,5.30
2022-12-18T17:05:56.061Z,7.50
2022-12-18T17:06:55.975Z,5.70
2022-12-18T17:07:55.978Z,6.10
2022-12-18T17:08:55.955Z,6.10
2022-12-18T17:09:55.924Z,6.80
2022-12-18T17:10:55.904Z,5.70
2022-12-18T17:11:56.082Z,5.90
2022-12-18T17:12:55.892Z,5.80
2022-12-18T17:13:55.911Z,6.40
2022-12-18T17:14:55.867Z,5.70
2022-12-18T17:15:55.928Z,5.50
2022-12-18T17:17:19.852Z,6.60
2022-12-18T17:17:57.219Z,6.00
2022-12-18T17:18:55.894Z,5.30
2022-12-18T17:19:55.818Z,4.10
2022-12-18T17:20:55.770Z,5.30
2022-12-18T17:21:55.861Z,5.40
2022-12-18T17:22:55.766Z,4.50
2022-12-18T17:23:56.306Z,4.80
2022-12-18T17:24:56.103Z,6.30
2022-12-18T17:25:55.747Z,6.20
2022-12-18T17:26:55.776Z,4.10
2022-12-18T17:27:55.734Z,4.80
2022-12-18T17:28:55.679Z,5.20
2022-12-18T17:29:55.863Z,5.80
2022-12-18T17:30:56.473Z,5.00
2022-12-18T17:31:55.655Z,5.30
2022-12-18T17:32:55.635Z,6.00
2022-12-18T17:33:55.705Z,6.40
2022-12-18T17:34:55.827Z,4.70
2022-12-18T17:35:55.944Z,4.50
2022-12-18T17:36:55.582Z,5.30
2022-12-18T17:37:55.639Z,5.30
2022-12-18T17:38:55.566Z,5.40
2022-12-18T17:39:56.242Z,5.60
2022-12-18T17:40:55.576Z,5.50
2022-12-18T17:41:55.780Z,4.40
2022-12-18T17:42:55.510Z,4.50
2022-12-18T17:43:55.523Z,4.60
2022-12-18T17:44:55.488Z,5.70
2022-12-18T17:45:55.490Z,6.70
2022-12-18T17:46:55.569Z,4.50
2022-12-18T17:47:59.857Z,5.90
2022-12-18T17:48:55.427Z,6.00
2022-12-18T17:49:55.496Z,5.00
2022-12-18T17:50:55.417Z,5.10
2022-12-18T17:51:55.537Z,4.60
2022-12-18T17:52:55.431Z,4.50
2022-12-18T17:53:55.502Z,5.60
2022-12-18T17:54:55.382Z,5.30
2022-12-18T17:55:55.380Z,5.10
2022-12-18T17:56:55.337Z,5.60
2022-12-18T17:57:55.358Z,4.60
2022-12-18T17:59:02.706Z,5.30
2022-12-18T18:00:02.819Z,5.00
2022-12-18T18:01:02.298Z,5.90
2022-12-18T18:02:02.554Z,5.60
2022-12-18T18:03:02.480Z,4.50
2022-12-18T18:04:02.366Z,6.10
2022-12-18T18:05:04.177Z,6.60
2022-12-18T18:05:55.248Z,4.20
2022-12-18T18:06:55.206Z,5.70
2022-12-18T18:07:55.219Z,5.50
2022-12-18T18:08:55.195Z,4.70
2022-12-18T18:09:55.199Z,5.70
2022-12-18T18:10:55.577Z,7.30
2022-12-18T18:11:55.204Z,6.80
2022-12-18T18:12:55.145Z,5.30
2022-12-18T18:13:55.176Z,5.30
2022-12-18T18:14:55.126Z,9.40
2022-12-18T18:15:55.143Z,7.60
2022-12-18T18:16:55.382Z,7.90
2022-12-18T18:17:55.166Z,7.20
2022-12-18T18:18:55.131Z,7.20
2022-12-18T18:19:55.141Z,5.70
2022-12-18T18:20:55.042Z,6.10